sensor_id;sensor_type;location;lat;lon;timestamp;P1;durP1;ratioP1;P2;durP2;ratioP2
6787;SDS011;3431;47.966;10.268;2022-10-22T00:00:07;2.25;;;1.70;;
6787;SDS011;3431;47.966;10.268;2022-10-22T00:00:32;1.33;;;1.27;;
6787;SDS011;3431;47.966;10.268;2022-10-22T00:00:54;1.55;;;1.40;;
6787;SDS011;3431;47.966;10.268;2022-10-22T00:01:15;1.45;;;1.35;;
6787;SDS011;3431;47.966;10.268;2022-10-22T00:01:37;2.50;;;1.50;;
6787;SDS011;3431;47.966;10.268;2022-10-22T00:01:59;2.15;;;1.70;;
6787;SDS011;3431;47.966;10.268;2022-10-22T00:02:21;1.50;;;1.20;;
6787;SDS011;3431;47.966;10.268;2022-10-22T00:02:43;2.10;;;1.30;;
6787;SDS011;3431;47.966;10.268;2022-10-22T00:03:05;2.10;;;1.20;;
6787;SDS011;3431;47.966;10.268;2022-10-22T00:03:26;2.22;;;1.60;;
6787;SDS011;3431;47.966;10.268;2022-10-22T00:03:49;1.48;;;1.25;;
6787;SDS011;3431;47.966;10.268;2022-10-22T00:04:10;1.73;;;1.20;;
6787;SDS011;3431;47.966;10.268;2022-10-22T00:04:32;1.13;;;1.10;;
6787;SDS011;3431;47.966;10.268;2022-10-22T00:04:53;1.30;;;1.20;;
6787;SDS011;3431;47.966;10.268;2022-10-22T00:05:16;1.33;;;1.23;;
6787;SDS011;3431;47.966;10.268;2022-10-22T00:05:38;1.45;;;1.35;;
6787;SDS011;3431;47.966;10.268;2022-10-22T00:05:59;1.47;;;1.17;;
6787;SDS011;3431;47.966;10.268;2022-10-22T00:06:21;1.38;;;1.25;;
6787;SDS011;3431;47.966;10.268;2022-10-22T00:06:43;2.80;;;1.50;;
6787;SDS011;3431;47.966;10.268;2022-10-22T00:07:05;2.15;;;1.50;;
6787;SDS011;3431;47.966;10.268;2022-10-22T00:07:27;2.03;;;1.67;;
6787;SDS011;3431;47.966;10.268;2022-10-22T00:07:48;1.55;;;1.45;;
6787;SDS011;3431;47.966;10.268;2022-10-22T00:08:10;1.58;;;1.20;;
6787;SDS011;3431;47.966;10.268;2022-10-22T00:08:33;1.73;;;1.50;;
6787;SDS011;3431;47.966;10.268;2022-10-22T00:08:55;2.08;;;1.52;;
6787;SDS011;3431;47.966;10.268;2022-10-22T00:09:17;1.63;;;1.37;;
6787;SDS011;3431;47.966;10.268;2022-10-22T00:09:38;2.28;;;1.50;;
6787;SDS011;3431;47.966;10.268;2022-10-22T00:10:00;2.47;;;1.50;;
6787;SDS011;3431;47.966;10.268;2022-10-22T00:10:23;4.47;;;2.05;;
6787;SDS011;3431;47.966;10.268;2022-10-22T00:10:44;4.25;;;1.95;;
6787;SDS011;3431;47.966;10.268;2022-10-22T00:11:07;1.35;;;1.25;;
6787;SDS011;3431;47.966;10.268;2022-10-22T00:11:29;1.25;;;1.13;;
6787;SDS011;3431;47.966;10.268;2022-10-22T00:11:50;1.73;;;1.40;;
6787;SDS011;3431;47.966;10.268;2022-10-22T00:12:13;1.60;;;1.50;;
6787;SDS011;3431;47.966;10.268;2022-10-22T00:12:35;1.20;;;1.10;;
6787;SDS011;3431;47.966;10.268;2022-10-22T00:12:57;1.40;;;1.30;;
6787;SDS011;3431;47.966;10.268;2022-10-22T00:13:19;1.40;;;1.30;;
6787;SDS011;3431;47.966;10.268;2022-10-22T00:13:41;1.83;;;1.30;;
6787;SDS011;3431;47.966;10.268;2022-10-22T00:14:04;2.30;;;1.50;;
6787;SDS011;3431;47.966;10.268;2022-10-22T00:14:25;2.70;;;1.60;;
6787;SDS011;3431;47.966;10.268;2022-10-22T00:14:47;1.42;;;1.33;;
6787;SDS011;3431;47.966;10.268;2022-10-22T00:15:10;1.60;;;1.38;;
6787;SDS011;3431;47.966;10.268;2022-10-22T00:15:33;1.38;;;1.27;;
6787;SDS011;3431;47.966;10.268;2022-10-22T00:15:55;1.40;;;1.30;;
6787;SDS011;3431;47.966;10.268;2022-10-22T00:16:16;1.52;;;1.35;;
6787;SDS011;3431;47.966;10.268;2022-10-22T00:16:38;1.50;;;1.33;;
6787;SDS011;3431;47.966;10.268;2022-10-22T00:17:00;1.70;;;1.60;;
6787;SDS011;3431;47.966;10.268;2022-10-22T00:17:22;1.40;;;1.30;;
6787;SDS011;3431;47.966;10.268;2022-10-22T00:17:43;1.80;;;1.40;;
6787;SDS011;3431;47.966;10.268;2022-10-22T00:18:05;2.03;;;1.40;;
6787;SDS011;3431;47.966;10.268;2022-10-22T00:18:27;2.25;;;1.30;;
6787;SDS011;3431;47.966;10.268;2022-10-22T00:18:49;1.65;;;1.52;;
6787;SDS011;3431;47.966;10.268;2022-10-22T00:19:11;1.45;;;1.35;;
6787;SDS011;3431;47.966;10.268;2022-10-22T00:19:33;1.20;;;1.10;;
6787;SDS011;3431;47.966;10.268;2022-10-22T00:19:54;1.52;;;1.10;;
6787;SDS011;3431;47.966;10.268;2022-10-22T00:20:17;1.60;;;1.30;;
6787;SDS011;3431;47.966;10.268;2022-10-22T00:20:39;1.70;;;1.40;;
6787;SDS011;3431;47.966;10.268;2022-10-22T00:21:00;2.88;;;1.35;;
6787;SDS011;3431;47.966;10.268;2022-10-22T00:21:22;1.50;;;1.20;;
6787;SDS011;3431;47.966;10.268;2022-10-22T00:21:45;1.80;;;1.50;;
6787;SDS011;3431;47.966;10.268;2022-10-22T00:22:06;1.50;;;1.40;;
6787;SDS011;3431;47.966;10.268;2022-10-22T00:22:29;1.40;;;1.30;;
6787;SDS011;3431;47.966;10.268;2022-10-22T00:22:51;1.38;;;1.27;;
6787;SDS011;3431;47.966;10.268;2022-10-22T00:23:12;2.78;;;1.42;;
6787;SDS011;3431;47.966;10.268;2022-10-22T00:23:35;2.28;;;1.30;;
6787;SDS011;3431;47.966;10.268;2022-10-22T00:23:59;1.30;;;1.20;;
6787;SDS011;3431;47.966;10.268;2022-10-22T00:24:21;1.00;;;1.00;;
6787;SDS011;3431;47.966;10.268;2022-10-22T00:24:42;1.10;;;1.10;;
6787;SDS011;3431;47.966;10.268;2022-10-22T00:25:05;1.30;;;1.20;;
6787;SDS011;3431;47.966;10.268;2022-10-22T00:25:27;2.22;;;1.33;;
6787;SDS011;3431;47.966;10.268;2022-10-22T00:25:48;2.90;;;1.60;;
6787;SDS011;3431;47.966;10.268;2022-10-22T00:26:10;2.30;;;1.58;;
6787;SDS011;3431;47.966;10.268;2022-10-22T00:26:33;1.38;;;1.27;;
6787;SDS011;3431;47.966;10.268;2022-10-22T00:26:54;1.50;;;1.40;;
6787;SDS011;3431;47.966;10.268;2022-10-22T00:27:16;1.33;;;1.23;;
6787;SDS011;3431;47.966;10.268;2022-10-22T00:27:37;1.50;;;1.40;;
6787;SDS011;3431;47.966;10.268;2022-10-22T00:28:00;1.60;;;1.50;;
6787;SDS011;3431;47.966;10.268;2022-10-22T00:28:21;1.53;;;1.40;;
6787;SDS011;3431;47.966;10.268;2022-10-22T00:28:43;1.48;;;1.27;;
6787;SDS011;3431;47.966;10.268;2022-10-22T00:29:05;1.58;;;1.30;;
6787;SDS011;3431;47.966;10.268;2022-10-22T00:29:26;1.40;;;1.30;;
6787;SDS011;3431;47.966;10.268;2022-10-22T00:29:48;1.35;;;1.25;;
6787;SDS011;3431;47.966;10.268;2022-10-22T00:30:11;1.40;;;1.30;;
6787;SDS011;3431;47.966;10.268;2022-10-22T00:30:34;1.40;;;1.30;;
6787;SDS011;3431;47.966;10.268;2022-10-22T00:30:55;1.40;;;1.30;;
6787;SDS011;3431;47.966;10.268;2022-10-22T00:31:17;1.30;;;1.20;;
6787;SDS011;3431;47.966;10.268;2022-10-22T00:31:40;1.90;;;1.52;;
6787;SDS011;3431;47.966;10.268;2022-10-22T00:32:02;1.40;;;1.30;;
6787;SDS011;3431;47.966;10.268;2022-10-22T00:32:24;2.20;;;1.25;;
6787;SDS011;3431;47.966;10.268;2022-10-22T00:32:45;1.55;;;1.23;;
6787;SDS011;3431;47.966;10.268;2022-10-22T00:33:07;1.40;;;1.30;;
6787;SDS011;3431;47.966;10.268;2022-10-22T00:33:30;2.33;;;1.30;;
6787;SDS011;3431;47.966;10.268;2022-10-22T00:33:51;1.77;;;1.20;;
6787;SDS011;3431;47.966;10.268;2022-10-22T00:34:13;1.38;;;1.20;;
6787;SDS011;3431;47.966;10.268;2022-10-22T00:34:35;1.73;;;1.17;;
6787;SDS011;3431;47.966;10.268;2022-10-22T00:34:57;1.38;;;1.27;;
6787;SDS011;3431;47.966;10.268;2022-10-22T00:35:19;1.90;;;1.45;;
6787;SDS011;3431;47.966;10.268;2022-10-22T00:35:40;2.85;;;1.67;;
6787;SDS011;3431;47.966;10.268;2022-10-22T00:36:04;2.00;;;1.40;;
6787;SDS011;3431;47.966;10.268;2022-10-22T00:36:26;1.40;;;1.30;;
6787;SDS011;3431;47.966;10.268;2022-10-22T00:36:48;1.90;;;1.23;;
6787;SDS011;3431;47.966;10.268;2022-10-22T00:37:11;2.55;;;1.17;;
6787;SDS011;3431;47.966;10.268;2022-10-22T00:37:32;1.67;;;1.57;;
6787;SDS011;3431;47.966;10.268;2022-10-22T00:37:54;1.58;;;1.45;;
6787;SDS011;3431;47.966;10.268;2022-10-22T00:38:17;1.45;;;1.35;;
6787;SDS011;3431;47.966;10.268;2022-10-22T00:38:38;1.95;;;1.50;;
6787;SDS011;3431;47.966;10.268;2022-10-22T00:39:00;1.45;;;1.30;;
6787;SDS011;3431;47.966;10.268;2022-10-22T00:39:23;1.00;;;1.00;;
6787;SDS011;3431;47.966;10.268;2022-10-22T00:39:47;0.90;;;0.90;;
6787;SDS011;3431;47.966;10.268;2022-10-22T00:40:09;0.93;;;0.90;;
6787;SDS011;3431;47.966;10.268;2022-10-22T00:40:31;1.30;;;1.20;;
6787;SDS011;3431;47.966;10.268;2022-10-22T00:40:54;1.10;;;1.00;;
6787;SDS011;3431;47.966;10.268;2022-10-22T00:41:16;0.90;;;0.90;;
6787;SDS011;3431;47.966;10.268;2022-10-22T00:41:37;0.80;;;0.80;;
6787;SDS011;3431;47.966;10.268;2022-10-22T00:41:59;0.90;;;0.90;;
6787;SDS011;3431;47.966;10.268;2022-10-22T00:42:23;1.73;;;1.10;;
6787;SDS011;3431;47.966;10.268;2022-10-22T00:42:46;1.63;;;1.00;;
6787;SDS011;3431;47.966;10.268;2022-10-22T00:43:09;1.00;;;1.00;;
6787;SDS011;3431;47.966;10.268;2022-10-22T00:43:31;1.00;;;1.00;;
6787;SDS011;3431;47.966;10.268;2022-10-22T00:43:55;1.13;;;1.10;;
6787;SDS011;3431;47.966;10.268;2022-10-22T00:45:18;1.38;;;1.25;;
6787;SDS011;3431;47.966;10.268;2022-10-22T00:45:44;1.10;;;1.00;;
6787;SDS011;3431;47.966;10.268;2022-10-22T00:46:06;1.20;;;1.02;;
6787;SDS011;3431;47.966;10.268;2022-10-22T00:46:28;1.02;;;1.02;;
6787;SDS011;3431;47.966;10.268;2022-10-22T00:46:50;1.23;;;1.13;;
6787;SDS011;3431;47.966;10.268;2022-10-22T00:47:11;1.10;;;1.00;;
6787;SDS011;3431;47.966;10.268;2022-10-22T00:47:35;1.13;;;1.02;;
6787;SDS011;3431;47.966;10.268;2022-10-22T00:47:59;1.10;;;1.00;;
6787;SDS011;3431;47.966;10.268;2022-10-22T00:48:24;1.10;;;1.10;;
6787;SDS011;3431;47.966;10.268;2022-10-22T00:48:50;1.13;;;1.00;;
6787;SDS011;3431;47.966;10.268;2022-10-22T00:49:12;1.23;;;1.10;;
6787;SDS011;3431;47.966;10.268;2022-10-22T00:49:34;1.90;;;1.40;;
6787;SDS011;3431;47.966;10.268;2022-10-22T00:49:55;1.83;;;1.17;;
6787;SDS011;3431;47.966;10.268;2022-10-22T00:50:21;1.15;;;1.05;;
6787;SDS011;3431;47.966;10.268;2022-10-22T00:50:45;1.30;;;1.20;;
6787;SDS011;3431;47.966;10.268;2022-10-22T00:51:10;0.98;;;0.93;;
6787;SDS011;3431;47.966;10.268;2022-10-22T00:51:32;0.88;;;0.88;;
6787;SDS011;3431;47.966;10.268;2022-10-22T00:51:55;0.90;;;0.88;;
6787;SDS011;3431;47.966;10.268;2022-10-22T00:52:17;1.10;;;1.00;;
6787;SDS011;3431;47.966;10.268;2022-10-22T00:52:39;1.10;;;0.98;;
6787;SDS011;3431;47.966;10.268;2022-10-22T00:53:02;1.10;;;1.00;;
6787;SDS011;3431;47.966;10.268;2022-10-22T00:53:27;0.93;;;0.93;;
6787;SDS011;3431;47.966;10.268;2022-10-22T00:53:53;1.70;;;1.17;;
6787;SDS011;3431;47.966;10.268;2022-10-22T00:54:18;0.95;;;0.95;;
6787;SDS011;3431;47.966;10.268;2022-10-22T00:54:40;1.13;;;0.93;;
6787;SDS011;3431;47.966;10.268;2022-10-22T00:55:02;1.23;;;1.10;;
6787;SDS011;3431;47.966;10.268;2022-10-22T00:55:25;0.90;;;0.90;;
6787;SDS011;3431;47.966;10.268;2022-10-22T00:55:48;0.93;;;0.93;;
6787;SDS011;3431;47.966;10.268;2022-10-22T00:56:13;0.80;;;0.80;;
6787;SDS011;3431;47.966;10.268;2022-10-22T00:56:35;0.90;;;0.90;;
6787;SDS011;3431;47.966;10.268;2022-10-22T00:56:57;1.30;;;0.98;;
6787;SDS011;3431;47.966;10.268;2022-10-22T00:57:19;1.25;;;1.15;;
6787;SDS011;3431;47.966;10.268;2022-10-22T00:57:42;1.02;;;1.02;;
6787;SDS011;3431;47.966;10.268;2022-10-22T00:58:05;1.00;;;1.00;;
6787;SDS011;3431;47.966;10.268;2022-10-22T00:58:27;0.90;;;0.90;;
6787;SDS011;3431;47.966;10.268;2022-10-22T00:58:53;1.20;;;0.90;;
6787;SDS011;3431;47.966;10.268;2022-10-22T00:59:16;0.90;;;0.90;;
6787;SDS011;3431;47.966;10.268;2022-10-22T00:59:38;0.82;;;0.82;;
6787;SDS011;3431;47.966;10.268;2022-10-22T01:00:02;1.00;;;1.00;;
6787;SDS011;3431;47.966;10.268;2022-10-22T01:00:25;1.05;;;1.00;;
6787;SDS011;3431;47.966;10.268;2022-10-22T01:00:48;0.93;;;0.93;;
6787;SDS011;3431;47.966;10.268;2022-10-22T01:01:17;0.80;;;0.80;;
6787;SDS011;3431;47.966;10.268;2022-10-22T01:01:42;0.90;;;0.90;;
6787;SDS011;3431;47.966;10.268;2022-10-22T01:02:05;0.98;;;0.98;;
6787;SDS011;3431;47.966;10.268;2022-10-22T01:02:26;1.05;;;1.00;;
6787;SDS011;3431;47.966;10.268;2022-10-22T01:02:48;1.05;;;0.95;;
6787;SDS011;3431;47.966;10.268;2022-10-22T01:03:11;0.90;;;0.90;;
6787;SDS011;3431;47.966;10.268;2022-10-22T01:03:33;1.30;;;0.90;;
6787;SDS011;3431;47.966;10.268;2022-10-22T01:03:55;0.93;;;0.93;;
6787;SDS011;3431;47.966;10.268;2022-10-22T01:04:17;1.20;;;0.90;;
6787;SDS011;3431;47.966;10.268;2022-10-22T01:04:40;0.80;;;0.80;;
6787;SDS011;3431;47.966;10.268;2022-10-22T01:05:02;1.00;;;1.00;;
6787;SDS011;3431;47.966;10.268;2022-10-22T01:05:25;1.52;;;1.20;;
6787;SDS011;3431;47.966;10.268;2022-10-22T01:05:50;0.93;;;0.85;;
6787;SDS011;3431;47.966;10.268;2022-10-22T01:06:18;1.13;;;1.00;;
6787;SDS011;3431;47.966;10.268;2022-10-22T01:06:42;1.20;;;1.20;;
6787;SDS011;3431;47.966;10.268;2022-10-22T01:07:04;1.23;;;1.13;;
6787;SDS011;3431;47.966;10.268;2022-10-22T01:07:26;0.90;;;0.90;;
6787;SDS011;3431;47.966;10.268;2022-10-22T01:07:48;1.05;;;0.95;;
6787;SDS011;3431;47.966;10.268;2022-10-22T01:08:15;0.80;;;0.80;;
6787;SDS011;3431;47.966;10.268;2022-10-22T01:08:42;0.98;;;0.98;;
6787;SDS011;3431;47.966;10.268;2022-10-22T01:09:11;1.00;;;1.00;;
6787;SDS011;3431;47.966;10.268;2022-10-22T01:09:45;1.08;;;1.00;;
6787;SDS011;3431;47.966;10.268;2022-10-22T01:10:16;0.85;;;0.85;;
6787;SDS011;3431;47.966;10.268;2022-10-22T01:10:48;1.23;;;1.13;;
6787;SDS011;3431;47.966;10.268;2022-10-22T01:11:18;1.30;;;1.10;;
6787;SDS011;3431;47.966;10.268;2022-10-22T01:11:50;0.98;;;0.98;;
6787;SDS011;3431;47.966;10.268;2022-10-22T01:12:20;2.03;;;0.90;;
6787;SDS011;3431;47.966;10.268;2022-10-22T01:12:52;1.20;;;1.10;;
6787;SDS011;3431;47.966;10.268;2022-10-22T01:13:24;0.93;;;0.93;;
6787;SDS011;3431;47.966;10.268;2022-10-22T01:13:59;1.33;;;1.15;;
6787;SDS011;3431;47.966;10.268;2022-10-22T01:14:32;1.10;;;1.08;;
6787;SDS011;3431;47.966;10.268;2022-10-22T01:15:04;0.98;;;0.98;;
6787;SDS011;3431;47.966;10.268;2022-10-22T01:15:33;1.30;;;1.10;;
6787;SDS011;3431;47.966;10.268;2022-10-22T01:16:05;0.95;;;0.95;;
6787;SDS011;3431;47.966;10.268;2022-10-22T01:16:32;1.02;;;1.02;;
6787;SDS011;3431;47.966;10.268;2022-10-22T01:17:02;1.00;;;1.00;;
6787;SDS011;3431;47.966;10.268;2022-10-22T01:17:29;0.93;;;0.93;;
6787;SDS011;3431;47.966;10.268;2022-10-22T01:18:01;1.05;;;1.00;;
6787;SDS011;3431;47.966;10.268;2022-10-22T01:18:29;1.10;;;1.02;;
6787;SDS011;3431;47.966;10.268;2022-10-22T01:18:58;1.08;;;1.05;;
6787;SDS011;3431;47.966;10.268;2022-10-22T01:19:31;1.20;;;1.10;;
6787;SDS011;3431;47.966;10.268;2022-10-22T01:20:07;1.20;;;1.20;;
6787;SDS011;3431;47.966;10.268;2022-10-22T01:20:45;1.20;;;1.10;;
6787;SDS011;3431;47.966;10.268;2022-10-22T01:21:20;1.65;;;1.10;;
6787;SDS011;3431;47.966;10.268;2022-10-22T01:21:50;1.17;;;1.10;;
6787;SDS011;3431;47.966;10.268;2022-10-22T01:22:19;1.02;;;1.00;;
6787;SDS011;3431;47.966;10.268;2022-10-22T01:22:49;1.45;;;1.30;;
6787;SDS011;3431;47.966;10.268;2022-10-22T01:23:22;1.13;;;1.13;;
6787;SDS011;3431;47.966;10.268;2022-10-22T01:24:14;1.00;;;1.00;;
6787;SDS011;3431;47.966;10.268;2022-10-22T01:24:55;1.13;;;1.08;;
6787;SDS011;3431;47.966;10.268;2022-10-22T01:25:20;1.00;;;1.00;;
6787;SDS011;3431;47.966;10.268;2022-10-22T01:25:52;1.13;;;1.13;;
6787;SDS011;3431;47.966;10.268;2022-10-22T01:26:21;0.98;;;0.90;;
6787;SDS011;3431;47.966;10.268;2022-10-22T01:26:56;1.13;;;1.00;;
6787;SDS011;3431;47.966;10.268;2022-10-22T01:27:47;0.95;;;0.95;;
6787;SDS011;3431;47.966;10.268;2022-10-22T01:28:22;0.90;;;0.90;;
6787;SDS011;3431;47.966;10.268;2022-10-22T01:28:59;0.85;;;0.85;;
6787;SDS011;3431;47.966;10.268;2022-10-22T01:29:26;1.10;;;1.00;;
6787;SDS011;3431;47.966;10.268;2022-10-22T01:29:54;1.10;;;1.00;;
6787;SDS011;3431;47.966;10.268;2022-10-22T01:30:20;1.23;;;1.05;;
6787;SDS011;3431;47.966;10.268;2022-10-22T01:30:43;1.02;;;1.00;;
6787;SDS011;3431;47.966;10.268;2022-10-22T01:31:06;1.33;;;1.20;;
6787;SDS011;3431;47.966;10.268;2022-10-22T01:31:30;1.10;;;1.05;;
6787;SDS011;3431;47.966;10.268;2022-10-22T01:31:59;2.13;;;0.98;;
6787;SDS011;3431;47.966;10.268;2022-10-22T01:32:24;1.27;;;1.00;;
6787;SDS011;3431;47.966;10.268;2022-10-22T01:32:47;1.38;;;1.00;;
6787;SDS011;3431;47.966;10.268;2022-10-22T01:33:14;1.70;;;1.08;;
6787;SDS011;3431;47.966;10.268;2022-10-22T01:33:38;1.25;;;1.17;;
6787;SDS011;3431;47.966;10.268;2022-10-22T01:34:01;1.90;;;1.20;;
6787;SDS011;3431;47.966;10.268;2022-10-22T01:34:24;1.23;;;1.13;;
6787;SDS011;3431;47.966;10.268;2022-10-22T01:34:48;0.93;;;0.90;;
6787;SDS011;3431;47.966;10.268;2022-10-22T01:35:15;1.20;;;1.10;;
6787;SDS011;3431;47.966;10.268;2022-10-22T01:35:40;1.05;;;1.05;;
6787;SDS011;3431;47.966;10.268;2022-10-22T01:36:04;0.80;;;0.80;;
6787;SDS011;3431;47.966;10.268;2022-10-22T01:36:28;1.27;;;1.00;;
6787;SDS011;3431;47.966;10.268;2022-10-22T01:36:51;1.00;;;1.00;;
6787;SDS011;3431;47.966;10.268;2022-10-22T01:37:14;1.02;;;1.00;;
6787;SDS011;3431;47.966;10.268;2022-10-22T01:37:39;1.10;;;1.10;;
6787;SDS011;3431;47.966;10.268;2022-10-22T01:38:04;1.00;;;1.00;;
6787;SDS011;3431;47.966;10.268;2022-10-22T01:38:30;3.15;;;1.15;;
6787;SDS011;3431;47.966;10.268;2022-10-22T01:38:53;1.10;;;1.08;;
6787;SDS011;3431;47.966;10.268;2022-10-22T01:39:16;1.20;;;1.10;;
6787;SDS011;3431;47.966;10.268;2022-10-22T01:39:40;0.93;;;0.93;;
6787;SDS011;3431;47.966;10.268;2022-10-22T01:40:04;1.20;;;1.10;;
6787;SDS011;3431;47.966;10.268;2022-10-22T01:40:27;1.50;;;1.00;;
6787;SDS011;3431;47.966;10.268;2022-10-22T01:40:51;0.90;;;0.90;;
6787;SDS011;3431;47.966;10.268;2022-10-22T01:41:12;0.80;;;0.80;;
6787;SDS011;3431;47.966;10.268;2022-10-22T01:41:34;0.93;;;0.93;;
6787;SDS011;3431;47.966;10.268;2022-10-22T01:41:56;1.08;;;1.08;;
6787;SDS011;3431;47.966;10.268;2022-10-22T01:42:19;1.00;;;1.00;;
6787;SDS011;3431;47.966;10.268;2022-10-22T01:42:41;1.10;;;1.00;;
6787;SDS011;3431;47.966;10.268;2022-10-22T01:43:13;1.20;;;1.20;;
6787;SDS011;3431;47.966;10.268;2022-10-22T01:43:36;1.13;;;1.13;;
6787;SDS011;3431;47.966;10.268;2022-10-22T01:43:58;1.10;;;1.08;;
6787;SDS011;3431;47.966;10.268;2022-10-22T01:44:24;1.30;;;1.20;;
6787;SDS011;3431;47.966;10.268;2022-10-22T01:44:46;1.05;;;0.95;;
6787;SDS011;3431;47.966;10.268;2022-10-22T01:45:10;1.02;;;1.02;;
6787;SDS011;3431;47.966;10.268;2022-10-22T01:45:33;1.38;;;1.00;;
6787;SDS011;3431;47.966;10.268;2022-10-22T01:45:59;0.90;;;0.80;;
6787;SDS011;3431;47.966;10.268;2022-10-22T01:46:24;1.20;;;0.85;;
6787;SDS011;3431;47.966;10.268;2022-10-22T01:46:48;1.20;;;1.00;;
6787;SDS011;3431;47.966;10.268;2022-10-22T01:47:14;1.30;;;1.20;;
6787;SDS011;3431;47.966;10.268;2022-10-22T01:47:44;0.90;;;0.90;;
6787;SDS011;3431;47.966;10.268;2022-10-22T01:48:17;1.00;;;0.90;;
6787;SDS011;3431;47.966;10.268;2022-10-22T01:48:54;1.17;;;1.07;;
6787;SDS011;3431;47.966;10.268;2022-10-22T01:49:30;0.90;;;0.90;;
6787;SDS011;3431;47.966;10.268;2022-10-22T01:50:13;1.25;;;1.20;;
6787;SDS011;3431;47.966;10.268;2022-10-22T01:50:52;1.05;;;0.90;;
6787;SDS011;3431;47.966;10.268;2022-10-22T01:51:28;0.88;;;0.88;;
6787;SDS011;3431;47.966;10.268;2022-10-22T01:51:59;1.02;;;1.02;;
6787;SDS011;3431;47.966;10.268;2022-10-22T01:52:34;0.95;;;0.95;;
6787;SDS011;3431;47.966;10.268;2022-10-22T01:53:14;1.10;;;1.10;;
6787;SDS011;3431;47.966;10.268;2022-10-22T01:53:43;1.38;;;1.27;;
6787;SDS011;3431;47.966;10.268;2022-10-22T01:54:13;3.70;;;1.00;;
6787;SDS011;3431;47.966;10.268;2022-10-22T01:54:48;1.55;;;1.15;;
6787;SDS011;3431;47.966;10.268;2022-10-22T01:55:14;1.00;;;1.00;;
6787;SDS011;3431;47.966;10.268;2022-10-22T01:55:49;1.20;;;1.10;;
6787;SDS011;3431;47.966;10.268;2022-10-22T01:56:25;1.00;;;1.00;;
6787;SDS011;3431;47.966;10.268;2022-10-22T01:56:55;1.08;;;1.00;;
6787;SDS011;3431;47.966;10.268;2022-10-22T01:57:27;1.50;;;1.10;;
6787;SDS011;3431;47.966;10.268;2022-10-22T01:58:00;1.45;;;1.10;;
6787;SDS011;3431;47.966;10.268;2022-10-22T01:58:33;1.20;;;1.10;;
6787;SDS011;3431;47.966;10.268;2022-10-22T01:59:03;1.00;;;1.00;;
6787;SDS011;3431;47.966;10.268;2022-10-22T01:59:31;1.25;;;1.15;;
6787;SDS011;3431;47.966;10.268;2022-10-22T02:00:03;1.05;;;0.98;;
6787;SDS011;3431;47.966;10.268;2022-10-22T02:00:29;0.90;;;0.90;;
6787;SDS011;3431;47.966;10.268;2022-10-22T02:01:04;1.00;;;1.00;;
6787;SDS011;3431;47.966;10.268;2022-10-22T02:01:31;2.35;;;1.10;;
6787;SDS011;3431;47.966;10.268;2022-10-22T02:02:03;2.35;;;1.27;;
6787;SDS011;3431;47.966;10.268;2022-10-22T02:02:32;2.10;;;0.90;;
6787;SDS011;3431;47.966;10.268;2022-10-22T02:03:02;1.08;;;1.08;;
6787;SDS011;3431;47.966;10.268;2022-10-22T02:03:27;1.05;;;1.00;;
6787;SDS011;3431;47.966;10.268;2022-10-22T02:03:55;1.48;;;1.38;;
6787;SDS011;3431;47.966;10.268;2022-10-22T02:04:24;1.00;;;1.00;;
6787;SDS011;3431;47.966;10.268;2022-10-22T02:04:49;0.90;;;0.90;;
6787;SDS011;3431;47.966;10.268;2022-10-22T02:05:18;0.98;;;0.98;;
6787;SDS011;3431;47.966;10.268;2022-10-22T02:05:44;1.17;;;1.08;;
6787;SDS011;3431;47.966;10.268;2022-10-22T02:06:11;1.17;;;1.08;;
6787;SDS011;3431;47.966;10.268;2022-10-22T02:06:36;0.90;;;0.90;;
6787;SDS011;3431;47.966;10.268;2022-10-22T02:07:03;1.00;;;1.00;;
6787;SDS011;3431;47.966;10.268;2022-10-22T02:07:28;0.90;;;0.90;;
6787;SDS011;3431;47.966;10.268;2022-10-22T02:07:54;1.58;;;0.90;;
6787;SDS011;3431;47.966;10.268;2022-10-22T02:08:22;0.90;;;0.90;;
6787;SDS011;3431;47.966;10.268;2022-10-22T02:08:48;1.10;;;1.10;;
6787;SDS011;3431;47.966;10.268;2022-10-22T02:09:11;1.60;;;1.08;;
6787;SDS011;3431;47.966;10.268;2022-10-22T02:09:35;1.17;;;1.10;;
6787;SDS011;3431;47.966;10.268;2022-10-22T02:09:59;1.13;;;1.13;;
6787;SDS011;3431;47.966;10.268;2022-10-22T02:10:22;2.22;;;1.20;;
6787;SDS011;3431;47.966;10.268;2022-10-22T02:10:45;2.33;;;1.10;;
6787;SDS011;3431;47.966;10.268;2022-10-22T02:11:07;1.15;;;0.95;;
6787;SDS011;3431;47.966;10.268;2022-10-22T02:11:31;0.93;;;0.90;;
6787;SDS011;3431;47.966;10.268;2022-10-22T02:11:54;0.95;;;0.95;;
6787;SDS011;3431;47.966;10.268;2022-10-22T02:12:17;1.05;;;1.05;;
6787;SDS011;3431;47.966;10.268;2022-10-22T02:12:42;1.20;;;1.10;;
6787;SDS011;3431;47.966;10.268;2022-10-22T02:13:06;1.05;;;1.05;;
6787;SDS011;3431;47.966;10.268;2022-10-22T02:13:31;0.80;;;0.80;;
6787;SDS011;3431;47.966;10.268;2022-10-22T02:14:00;1.30;;;1.10;;
6787;SDS011;3431;47.966;10.268;2022-10-22T02:14:25;1.00;;;1.00;;
6787;SDS011;3431;47.966;10.268;2022-10-22T02:14:49;0.90;;;0.90;;
6787;SDS011;3431;47.966;10.268;2022-10-22T02:15:13;1.20;;;1.10;;
6787;SDS011;3431;47.966;10.268;2022-10-22T02:15:36;0.90;;;0.90;;
6787;SDS011;3431;47.966;10.268;2022-10-22T02:15:59;0.98;;;0.80;;
6787;SDS011;3431;47.966;10.268;2022-10-22T02:16:27;1.02;;;0.90;;
6787;SDS011;3431;47.966;10.268;2022-10-22T02:16:51;1.00;;;0.95;;
6787;SDS011;3431;47.966;10.268;2022-10-22T02:17:14;0.90;;;0.90;;
6787;SDS011;3431;47.966;10.268;2022-10-22T02:17:39;0.90;;;0.90;;
6787;SDS011;3431;47.966;10.268;2022-10-22T02:18:04;1.00;;;1.00;;
6787;SDS011;3431;47.966;10.268;2022-10-22T02:18:30;0.90;;;0.90;;
6787;SDS011;3431;47.966;10.268;2022-10-22T02:18:54;0.75;;;0.75;;
6787;SDS011;3431;47.966;10.268;2022-10-22T02:19:24;1.38;;;1.27;;
6787;SDS011;3431;47.966;10.268;2022-10-22T02:19:46;1.63;;;0.90;;
6787;SDS011;3431;47.966;10.268;2022-10-22T02:20:13;1.05;;;0.80;;
6787;SDS011;3431;47.966;10.268;2022-10-22T02:20:39;0.90;;;0.80;;
6787;SDS011;3431;47.966;10.268;2022-10-22T02:21:03;0.82;;;0.82;;
6787;SDS011;3431;47.966;10.268;2022-10-22T02:21:25;1.00;;;1.00;;
6787;SDS011;3431;47.966;10.268;2022-10-22T02:21:47;0.98;;;0.98;;
6787;SDS011;3431;47.966;10.268;2022-10-22T02:22:09;0.80;;;0.80;;
6787;SDS011;3431;47.966;10.268;2022-10-22T02:22:31;0.80;;;0.80;;
6787;SDS011;3431;47.966;10.268;2022-10-22T02:22:56;1.00;;;0.82;;
6787;SDS011;3431;47.966;10.268;2022-10-22T02:23:19;1.27;;;0.90;;
6787;SDS011;3431;47.966;10.268;2022-10-22T02:23:41;0.80;;;0.80;;
6787;SDS011;3431;47.966;10.268;2022-10-22T02:24:04;0.90;;;0.80;;
6787;SDS011;3431;47.966;10.268;2022-10-22T02:24:27;0.90;;;0.90;;
6787;SDS011;3431;47.966;10.268;2022-10-22T02:24:49;0.77;;;0.77;;
6787;SDS011;3431;47.966;10.268;2022-10-22T02:25:10;0.80;;;0.80;;
6787;SDS011;3431;47.966;10.268;2022-10-22T02:25:34;0.70;;;0.70;;
6787;SDS011;3431;47.966;10.268;2022-10-22T02:25:59;0.70;;;0.70;;
6787;SDS011;3431;47.966;10.268;2022-10-22T02:26:29;0.80;;;0.80;;
6787;SDS011;3431;47.966;10.268;2022-10-22T02:26:57;0.85;;;0.85;;
6787;SDS011;3431;47.966;10.268;2022-10-22T02:27:28;1.15;;;0.90;;
6787;SDS011;3431;47.966;10.268;2022-10-22T02:27:56;0.88;;;0.88;;
6787;SDS011;3431;47.966;10.268;2022-10-22T02:28:24;1.15;;;1.08;;
6787;SDS011;3431;47.966;10.268;2022-10-22T02:28:51;1.38;;;0.98;;
6787;SDS011;3431;47.966;10.268;2022-10-22T02:29:19;1.20;;;1.20;;
6787;SDS011;3431;47.966;10.268;2022-10-22T02:29:46;0.90;;;0.90;;
6787;SDS011;3431;47.966;10.268;2022-10-22T02:30:13;0.98;;;0.98;;
6787;SDS011;3431;47.966;10.268;2022-10-22T02:30:37;0.82;;;0.82;;
6787;SDS011;3431;47.966;10.268;2022-10-22T02:31:03;1.10;;;1.00;;
6787;SDS011;3431;47.966;10.268;2022-10-22T02:31:31;1.77;;;0.90;;
6787;SDS011;3431;47.966;10.268;2022-10-22T02:31:56;1.00;;;1.00;;
6787;SDS011;3431;47.966;10.268;2022-10-22T02:32:21;0.80;;;0.80;;
6787;SDS011;3431;47.966;10.268;2022-10-22T02:32:47;0.70;;;0.70;;
6787;SDS011;3431;47.966;10.268;2022-10-22T02:33:15;1.05;;;0.90;;
6787;SDS011;3431;47.966;10.268;2022-10-22T02:33:40;1.00;;;0.93;;
6787;SDS011;3431;47.966;10.268;2022-10-22T02:34:06;1.30;;;1.00;;
6787;SDS011;3431;47.966;10.268;2022-10-22T02:34:30;1.63;;;0.93;;